Time;durP1;ratioP1;P1;durP2;ratioP2;P2;SDS_P1;SDS_P2;PMS_P1;PMS_P2;Temp;Humidity;BMP_temperature;BMP_pressure;BME280_temperature;BME280_humidity;BME280_pressure;Samples;Min_cycle;Max_cycle;Signal;HPM_P1;HPM_P2
2021/10/28 00:13:26;;;;;;;2.15;2.10;;;;;;;5.40;94.64;99915.06;5092641;28;20039;-82
2021/10/28 00:15:57;;;;;;;1.35;1.35;;;;;;;5.13;94.77;99922.53;5091079;28;20105;-82
2021/10/28 00:18:41;;;;;;;1.15;1.15;;;;;;;5.12;95.12;99901.78;5092716;28;20028;-80
2021/10/28 00:21:07;;;;;;;1.80;1.70;;;;;;;4.96;95.49;99895.69;5091409;28;20028;-82
2021/10/28 00:23:41;;;;;;;2.55;1.92;;;;;;;5.25;94.94;99927.78;5091436;28;20165;-81
2021/10/28 00:26:08;;;;;;;1.70;1.63;;;;;;;5.17;94.81;99906.94;5091001;28;20035;-81
2021/10/28 00:28:34;;;;;;;0.47;0.47;;;;;;;5.04;94.70;99900.09;5091162;28;20025;-83
2021/10/28 00:31:01;;;;;;;1.05;1.05;;;;;;;4.88;95.64;99898.31;5091454;28;20419;-83
2021/10/28 00:33:26;;;;;;;1.05;1.00;;;;;;;4.94;96.25;99898.81;5092262;28;20028;-84
2021/10/28 00:35:52;;;;;;;0.40;0.40;;;;;;;5.01;95.60;99900.84;5091170;28;20045;-83
2021/10/28 00:38:18;;;;;;;1.15;1.13;;;;;;;5.03;95.52;99898.53;5091423;28;20034;-84
2021/10/28 00:40:43;;;;;;;1.45;1.45;;;;;;;4.96;95.55;99892.94;5091370;28;20024;-84
2021/10/28 00:43:10;;;;;;;3.42;2.10;;;;;;;5.06;95.01;99886.84;5091164;28;20513;-83
2021/10/28 00:45:40;;;;;;;0.95;0.95;;;;;;;4.87;95.68;99885.81;5091568;28;20465;-82
2021/10/28 00:48:05;;;;;;;0.65;0.65;;;;;;;4.55;96.15;99837.19;5090908;28;20030;-82
2021/10/28 00:50:31;;;;;;;1.10;1.10;;;;;;;4.67;96.00;99858.88;5092814;28;20099;-83
2021/10/28 00:52:56;;;;;;;1.58;1.55;;;;;;;4.61;95.72;99852.94;5091083;28;20549;-82
2021/10/28 00:55:22;;;;;;;0.93;0.93;;;;;;;4.98;95.80;99896.91;5091283;28;20526;-82
2021/10/28 00:57:48;;;;;;;0.47;0.47;;;;;;;4.90;95.84;99904.22;5090905;28;20479;-81
2021/10/28 01:00:14;;;;;;;0.63;0.63;;;;;;;4.90;95.65;99878.78;5092233;28;20028;-83
2021/10/28 01:02:40;;;;;;;3.45;1.85;;;;;;;5.02;94.93;99899.69;5092087;28;20090;-83
2021/10/28 01:05:06;;;;;;;0.60;0.60;;;;;;;4.94;95.54;99873.38;5092340;28;20568;-81
2021/10/28 01:07:32;;;;;;;0.40;0.40;;;;;;;4.72;95.23;99848.41;5092102;28;20053;-81
2021/10/28 01:09:57;;;;;;;1.38;1.38;;;;;;;4.57;96.02;99841.16;5090814;28;20476;-83
2021/10/28 01:12:23;;;;;;;0.77;0.77;;;;;;;4.83;96.65;99876.72;5093390;28;20028;-82
2021/10/28 01:14:49;;;;;;;7.43;2.05;;;;;;;4.98;95.90;99885.94;5094653;28;20506;-83
2021/10/28 01:17:14;;;;;;;1.38;1.00;;;;;;;4.88;95.93;99876.41;5095511;28;20514;-81
2021/10/28 01:19:40;;;;;;;2.30;2.20;;;;;;;4.85;96.42;99884.56;5095637;28;20028;-82
2021/10/28 01:22:06;;;;;;;0.30;0.30;;;;;;;4.84;95.98;99878.31;5093894;28;20028;-81
2021/10/28 01:24:32;;;;;;;1.25;1.25;;;;;;;4.32;95.85;99785.25;5094216;28;20057;-82
2021/10/28 01:27:05;;;;;;;3.65;3.05;;;;;;;4.85;95.05;99851.72;5094192;28;20567;-84
2021/10/28 01:29:32;;;;;;;0.95;0.57;;;;;;;4.95;94.90;99874.94;5094496;28;20062;-82
2021/10/28 01:31:58;;;;;;;0.57;0.57;;;;;;;4.67;94.70;99829.56;5094160;28;20032;-81
2021/10/28 01:34:24;;;;;;;0.63;0.63;;;;;;;4.57;95.01;99827.47;5095554;28;20444;-82
2021/10/28 01:36:50;;;;;;;0.38;0.38;;;;;;;4.76;95.16;99881.31;5095030;28;20028;-82
2021/10/28 01:39:17;;;;;;;1.58;0.88;;;;;;;4.66;94.76;99838.94;5093982;28;20089;-81
2021/10/28 01:41:43;;;;;;;0.47;0.47;;;;;;;4.63;95.38;99867.06;5093773;28;20023;-81
2021/10/28 01:44:08;;;;;;;0.85;0.85;;;;;;;4.56;95.50;99875.16;5093811;28;20025;-81
2021/10/28 01:46:34;;;;;;;2.75;2.53;;;;;;;4.03;95.49;99786.78;5093640;28;20119;-82
2021/10/28 01:49:00;;;;;;;1.45;1.38;;;;;;;4.28;95.91;99833.66;5093645;28;20047;-81
2021/10/28 01:51:26;;;;;;;2.15;2.05;;;;;;;4.45;96.25;99864.03;5094568;28;20020;-82
2021/10/28 01:53:52;;;;;;;1.17;1.02;;;;;;;3.98;96.63;99804.25;5093667;28;20521;-82
2021/10/28 01:56:18;;;;;;;0.52;0.52;;;;;;;4.05;96.87;99833.66;5094677;28;20112;-82
2021/10/28 01:58:43;;;;;;;4.13;1.55;;;;;;;4.43;96.54;99868.28;5093487;28;20060;-81
2021/10/28 02:01:09;;;;;;;1.17;1.17;;;;;;;4.40;96.16;99871.78;5093310;28;20024;-81
2021/10/28 02:03:35;;;;;;;1.77;1.67;;;;;;;4.44;95.79;99848.00;5093396;28;20040;-83
2021/10/28 02:06:01;;;;;;;0.98;0.98;;;;;;;4.44;96.78;99867.16;5094795;28;20024;-82
2021/10/28 02:08:27;;;;;;;0.93;0.93;;;;;;;4.46;96.53;99862.09;5094087;28;20468;-83
2021/10/28 02:10:54;;;;;;;0.30;0.30;;;;;;;4.41;96.42;99838.56;5093433;28;20057;-83
2021/10/28 02:13:20;;;;;;;0.93;0.93;;;;;;;4.66;96.62;99876.47;5093234;28;20089;-81
2021/10/28 02:15:46;;;;;;;0.40;0.40;;;;;;;4.47;96.06;99836.28;5092925;28;20475;-81
2021/10/28 02:18:12;;;;;;;0.55;0.55;;;;;;;4.73;96.01;99888.31;5093060;28;20021;-82
2021/10/28 02:20:38;;;;;;;0.50;0.50;;;;;;;4.55;96.34;99859.88;5093942;28;20052;-83
2021/10/28 02:23:06;;;;;;;0.40;0.40;;;;;;;4.47;96.58;99847.25;5092624;28;20036;-81
2021/10/28 02:25:32;;;;;;;1.13;1.13;;;;;;;4.61;96.43;99866.63;5092927;28;20054;-80
2021/10/28 02:27:58;;;;;;;0.52;0.52;;;;;;;4.63;96.03;99845.16;5092769;28;20509;-83
2021/10/28 02:30:24;;;;;;;7.13;1.67;;;;;;;4.62;96.36;99889.31;5092839;28;20028;-81
2021/10/28 02:32:50;;;;;;;1.02;1.02;;;;;;;4.55;95.88;99827.03;5094697;28;20032;-82
2021/10/28 02:35:16;;;;;;;1.13;1.13;;;;;;;4.70;95.71;99864.41;5092331;28;20062;-81
2021/10/28 02:37:43;;;;;;;0.50;0.50;;;;;;;4.90;95.26;99870.56;5092708;28;20020;-82
2021/10/28 02:40:10;;;;;;;0.93;0.93;;;;;;;4.98;95.22;99880.47;5092654;28;20032;-82
2021/10/28 02:42:36;;;;;;;0.40;0.40;;;;;;;4.69;95.54;99851.91;5094719;28;20031;-82
2021/10/28 02:45:02;;;;;;;0.38;0.38;;;;;;;4.76;94.95;99845.75;5093913;28;20036;-82
2021/10/28 02:47:28;;;;;;;0.80;0.80;;;;;;;4.60;94.41;99859.56;5092230;28;20103;-81
2021/10/28 02:49:53;;;;;;;0.43;0.43;;;;;;;4.78;94.49;99887.19;5092159;28;20535;-80
2021/10/28 02:52:19;;;;;;;0.38;0.38;;;;;;;4.76;94.04;99882.09;5092112;28;20143;-81
2021/10/28 02:54:44;;;;;;;0.75;0.75;;;;;;;4.59;94.83;99871.66;5092115;28;20410;-81
2021/10/28 02:57:10;;;;;;;0.82;0.82;;;;;;;4.54;95.10;99871.97;5092098;28;20396;-81
2021/10/28 02:59:35;;;;;;;0.60;0.47;;;;;;;4.50;95.00;99874.69;5092254;28;20161;-81
2021/10/28 03:02:02;;;;;;;0.30;0.30;;;;;;;4.18;95.46;99815.13;5092224;28;20031;-80
2021/10/28 03:04:27;;;;;;;0.93;0.93;;;;;;;4.33;95.86;99869.72;5091762;28;20093;-81
2021/10/28 03:06:53;;;;;;;0.85;0.85;;;;;;;4.26;96.53;99875.06;5091863;28;20396;-81
2021/10/28 03:09:25;;;;;;;1.20;1.20;;;;;;;4.15;96.17;99835.00;5092143;28;20031;-80
2021/10/28 03:11:54;;;;;;;3.53;1.65;;;;;;;4.41;96.40;99892.47;5092384;28;20083;-80
2021/10/28 03:14:33;;;;;;;1.15;1.15;;;;;;;4.38;96.64;99887.75;5091923;28;20050;-81
2021/10/28 03:19:34;;;;;;;1.38;1.27;;;;;;;4.43;96.29;99888.25;5093354;28;20471;-81
2021/10/28 03:27:29;;;;;;;0.45;0.45;;;;;;;4.20;96.87;99848.38;5093418;28;20498;-82
2021/10/28 03:29:58;;;;;;;1.40;1.10;;;;;;;4.44;96.78;99881.63;5091909;28;20040;-83
2021/10/28 03:32:28;;;;;;;0.40;0.40;;;;;;;4.80;96.79;99888.44;5091899;28;20032;-84
2021/10/28 03:34:54;;;;;;;0.88;0.88;;;;;;;4.49;96.54;99848.47;5092819;28;20483;-83
2021/10/28 03:37:33;;;;;;;2.15;2.05;;;;;;;4.75;96.19;99883.28;5091791;28;20035;-84
2021/10/28 03:40:22;;;;;;;0.60;0.60;;;;;;;4.77;95.85;99913.78;5093374;28;20024;-82
2021/10/28 04:16:20;;;;;;;1.55;1.52;;;;;;;4.26;95.97;99905.16;5092628;28;20016;-82
2021/10/28 04:30:17;;;;;;;3.72;1.45;;;;;;;4.07;95.52;99889.59;5092224;28;20546;-81
2021/10/28 04:32:42;;;;;;;0.52;0.52;;;;;;;3.89;96.71;99857.59;5091439;28;20480;-81
2021/10/28 04:35:09;;;;;;;0.30;0.30;;;;;;;4.35;96.68;99916.63;5090904;28;20051;-82
2021/10/28 04:37:37;;;;;;;0.40;0.40;;;;;;;4.19;97.57;99902.28;5090957;28;20484;-83
2021/10/28 04:40:03;;;;;;;0.60;0.60;;;;;;;4.18;97.83;99902.66;5091446;28;20118;-81
2021/10/28 04:42:29;;;;;;;1.50;1.40;;;;;;;3.98;98.07;99880.00;5091572;28;20032;-83
2021/10/28 04:44:55;;;;;;;1.05;1.05;;;;;;;4.23;97.01;99914.06;5092456;28;20035;-81
2021/10/28 04:47:20;;;;;;;1.52;1.52;;;;;;;4.30;96.50;99905.19;5094961;28;20028;-80
2021/10/28 04:49:46;;;;;;;1.17;1.17;;;;;;;4.33;95.74;99923.63;5095031;28;20036;-82
2021/10/28 04:52:11;;;;;;;0.73;0.73;;;;;;;4.31;95.69;99917.72;5095088;28;20092;-80
2021/10/28 04:54:38;;;;;;;0.30;0.30;;;;;;;4.36;95.11;99923.69;5095199;28;20463;-83
2021/10/28 04:57:04;;;;;;;1.08;1.05;;;;;;;4.27;95.42;99933.28;5094597;28;20113;-81
2021/10/28 04:59:30;;;;;;;3.25;3.15;;;;;;;4.21;94.81;99912.88;5094566;28;20032;-81
2021/10/28 05:01:56;;;;;;;1.60;1.60;;;;;;;3.98;95.11;99883.53;5094888;28;20027;-83
2021/10/28 05:04:22;;;;;;;4.18;3.85;;;;;;;4.16;95.48;99907.72;5094663;28;20028;-82
2021/10/28 05:06:48;;;;;;;0.43;0.43;;;;;;;4.16;95.74;99915.91;5093976;28;20028;-82
2021/10/28 05:09:16;;;;;;;0.40;0.40;;;;;;;4.41;95.74;99941.72;5092854;28;20060;-83
2021/10/28 05:11:46;;;;;;;1.38;1.27;;;;;;;3.76;95.48;99817.91;5094894;28;20028;-82
2021/10/28 05:14:11;;;;;;;0.47;0.47;;;;;;;4.43;95.93;99945.69;5095693;28;20036;-85
2021/10/28 05:16:37;;;;;;;1.13;1.10;;;;;;;4.15;95.39;99884.25;5093922;28;20490;-83
2021/10/28 05:19:03;;;;;;;1.10;1.10;;;;;;;4.62;95.24;99960.47;5094274;28;20028;-83
2021/10/28 05:21:28;;;;;;;0.85;0.85;;;;;;;4.78;94.27;99953.72;5093868;28;20024;-84
2021/10/28 05:23:54;;;;;;;3.63;2.17;;;;;;;4.96;94.01;99950.44;5093185;28;20523;-83
2021/10/28 05:26:20;;;;;;;1.67;1.25;;;;;;;4.80;93.07;99915.81;5092780;28;20062;-82
2021/10/28 05:28:45;;;;;;;1.52;1.42;;;;;;;4.95;93.32;99932.44;5093597;28;20036;-80
2021/10/28 05:31:10;;;;;;;0.50;0.50;;;;;;;5.20;92.94;99959.03;5093264;28;20476;-81
2021/10/28 05:33:36;;;;;;;1.65;1.50;;;;;;;5.13;92.84;99966.34;5093746;28;20040;-84
2021/10/28 05:36:02;;;;;;;1.17;1.17;;;;;;;4.85;92.42;99893.59;5093612;28;20032;-82
2021/10/28 05:38:27;;;;;;;1.67;1.35;;;;;;;5.11;91.64;99927.59;5093244;28;20024;-81
2021/10/28 05:40:52;;;;;;;3.80;1.70;;;;;;;5.31;90.91;99945.47;5094688;28;20024;-80
2021/10/28 05:43:18;;;;;;;0.93;0.93;;;;;;;5.35;90.69;99965.53;5092390;28;20069;-80
2021/10/28 05:45:45;;;;;;;0.85;0.85;;;;;;;5.42;91.71;99967.56;5092554;28;20084;-79
2021/10/28 05:48:10;;;;;;;0.95;0.95;;;;;;;5.37;91.91;99965.91;5092891;28;20036;-79
2021/10/28 05:50:36;;;;;;;1.05;1.05;;;;;;;5.37;91.49;99956.91;5093209;28;20024;-79
2021/10/28 05:53:02;;;;;;;1.00;1.00;;;;;;;5.71;91.47;99981.28;5093936;28;20062;-80
2021/10/28 05:55:28;;;;;;;1.80;1.67;;;;;;;5.63;90.82;99937.69;5094147;28;20475;-80
2021/10/28 05:57:54;;;;;;;1.20;1.13;;;;;;;5.80;90.47;99941.78;5091808;28;20036;-80
2021/10/28 06:00:22;;;;;;;0.60;0.60;;;;;;;6.12;90.78;100006.09;5092701;28;20032;-79
2021/10/28 06:02:48;;;;;;;1.08;1.02;;;;;;;6.11;90.46;99997.06;5092905;28;20034;-81
2021/10/28 06:05:13;;;;;;;1.08;1.08;;;;;;;6.34;89.62;99985.94;5094074;28;20024;-80
2021/10/28 06:07:40;;;;;;;1.10;1.10;;;;;;;6.54;89.10;99989.28;5092707;28;20471;-78
2021/10/28 06:10:07;;;;;;;2.10;2.00;;;;;;;7.47;85.88;99996.28;5092738;28;20031;-79
2021/10/28 06:12:37;;;;;;;1.98;1.88;;;;;;;7.89;83.38;99998.47;5094167;28;20076;-78
2021/10/28 06:15:04;;;;;;;0.73;0.70;;;;;;;8.34;81.31;99980.56;5092559;28;20028;-77
2021/10/28 06:17:31;;;;;;;1.02;1.02;;;;;;;8.77;78.93;99956.59;5092426;28;20057;-76
2021/10/28 06:19:59;;;;;;;0.60;0.60;;;;;;;8.87;78.70;99995.19;5092109;28;20104;-78
2021/10/28 06:22:25;;;;;;;2.05;1.35;;;;;;;8.75;77.87;99989.25;5091975;28;20270;-75
2021/10/28 06:24:51;;;;;;;1.67;1.60;;;;;;;8.92;78.08;100002.28;5092801;28;20514;-77
2021/10/28 06:27:16;;;;;;;2.95;2.78;;;;;;;8.79;79.35;99999.13;5093084;28;20042;-77
2021/10/28 06:29:42;;;;;;;0.70;0.70;;;;;;;8.84;79.81;99973.94;5092485;28;20500;-78
2021/10/28 06:32:07;;;;;;;1.90;1.80;;;;;;;8.99;79.40;99996.75;5092525;28;20031;-79
2021/10/28 06:34:39;;;;;;;2.30;2.10;;;;;;;8.88;79.90;100007.00;5092071;28;20048;-78
2021/10/28 06:37:05;;;;;;;0.60;0.60;;;;;;;8.66;80.90;99962.13;5091795;28;20025;-77
2021/10/28 06:39:32;;;;;;;2.13;1.92;;;;;;;8.95;80.71;100005.03;5090561;28;20031;-78
2021/10/28 06:41:57;;;;;;;2.30;1.38;;;;;;;8.78;81.06;99971.97;5091642;28;20027;-79
2021/10/28 06:44:23;;;;;;;0.65;0.65;;;;;;;9.00;80.85;99992.81;5092094;28;20123;-78
2021/10/28 06:46:49;;;;;;;3.38;2.28;;;;;;;9.11;80.69;99981.78;5091940;28;20024;-79
2021/10/28 06:49:17;;;;;;;1.08;1.08;;;;;;;9.13;80.17;99993.22;5092211;28;20479;-80
2021/10/28 06:51:43;;;;;;;0.38;0.38;;;;;;;9.09;79.47;100006.22;5094156;28;20024;-80
2021/10/28 06:54:24;;;;;;;0.82;0.82;;;;;;;8.89;80.23;99995.59;5091998;28;20046;-78
2021/10/28 06:57:01;;;;;;;0.43;0.43;;;;;;;9.17;80.02;100002.25;5092649;28;20024;-80
2021/10/28 07:04:46;;;;;;;1.52;1.50;;;;;;;9.28;79.88;99995.53;5093626;28;20047;-80
2021/10/28 07:07:13;;;;;;;1.60;1.52;;;;;;;9.59;80.09;100007.72;5092222;28;20024;-80
2021/10/28 07:09:42;;;;;;;0.75;0.75;;;;;;;9.60;80.21;99994.72;5093281;28;20518;-80
2021/10/28 07:12:20;;;;;;;1.38;1.38;;;;;;;9.46;79.28;99943.13;5092213;28;20028;-79
2021/10/28 07:14:52;;;;;;;0.75;0.75;;;;;;;10.07;77.51;99996.13;5091842;28;20030;-78
2021/10/28 07:17:48;;;;;;;3.92;1.10;;;;;;;10.30;76.77;100015.00;5091926;28;20517;-79
2021/10/28 07:23:28;;;;;;;0.40;0.40;;;;;;;10.40;77.46;100019.66;5047980;28;20511;-80
2021/10/28 08:19:48;;;;;;;1.13;1.10;;;;;;;12.05;70.59;99983.44;5092827;28;20077;-79
2021/10/28 08:30:48;;;;;;;1.42;1.33;;;;;;;12.41;70.75;99964.34;5072837;28;20039;-80
2021/10/28 08:33:14;;;;;;;10.20;7.65;;;;;;;12.38;70.31;99964.38;5096347;28;20028;-79
2021/10/28 08:35:54;;;;;;;1.65;1.55;;;;;;;12.76;70.26;99974.09;5097429;28;20047;-78
2021/10/28 08:38:20;;;;;;;1.67;1.58;;;;;;;12.67;68.31;99959.19;5094927;28;20036;-79
2021/10/28 08:40:47;;;;;;;0.77;0.77;;;;;;;12.69;67.53;99984.53;5094991;28;20093;-80
2021/10/28 08:43:13;;;;;;;0.43;0.43;;;;;;;12.65;68.30;99956.84;5094896;28;20111;-77
2021/10/28 08:45:39;;;;;;;7.43;6.25;;;;;;;12.62;68.31;99949.38;5095000;28;20066;-80
2021/10/28 08:48:07;;;;;;;5.13;3.67;;;;;;;12.84;68.44;99964.44;5094723;28;20136;-79
2021/10/28 08:50:48;;;;;;;2.50;2.35;;;;;;;12.86;69.74;99944.63;5096251;28;20028;-80
2021/10/28 08:53:28;;;;;;;1.10;1.10;;;;;;;13.03;70.03;99954.63;5095036;28;20024;-76
2021/10/28 08:56:00;;;;;;;0.73;0.60;;;;;;;13.17;67.80;99961.97;5094721;28;20115;-78
2021/10/28 08:58:43;;;;;;;3.15;1.88;;;;;;;12.75;67.78;99936.47;5094488;28;20028;-80
2021/10/28 09:24:16;;;;;;;1.25;1.25;;;;;;;13.78;68.01;99954.06;5095649;28;20089;-78
2021/10/28 09:26:53;;;;;;;1.55;1.45;;;;;;;13.72;69.42;99945.47;5094316;28;20467;-79
2021/10/28 09:32:14;;;;;;;2.47;1.88;;;;;;;13.37;67.41;99905.28;5093945;28;20032;-77
2021/10/28 09:46:44;;;;;;;2.38;1.23;;;;;;;13.79;68.41;99928.66;5095224;28;20506;-79
2021/10/28 09:51:46;;;;;;;1.05;1.05;;;;;;;13.50;69.91;99932.41;5094875;28;20039;-79
2021/10/28 09:59:43;;;;;;;0.73;0.73;;;;;;;13.64;68.71;99916.25;5095219;28;20084;-78
2021/10/28 10:02:17;;;;;;;1.27;1.27;;;;;;;13.75;66.88;99922.38;5093441;28;20031;-77
2021/10/28 10:04:44;;;;;;;1.30;1.17;;;;;;;13.76;66.58;99910.03;5095146;28;20028;-77
2021/10/28 10:07:21;;;;;;;4.57;1.60;;;;;;;13.95;65.74;99893.78;5092858;28;20177;-76
2021/10/28 10:09:47;;;;;;;1.75;1.65;;;;;;;13.96;66.73;99887.03;5093171;28;20579;-79
2021/10/28 10:12:14;;;;;;;1.65;1.58;;;;;;;13.85;66.71;99842.81;5094950;28;20019;-80
2021/10/28 10:14:41;;;;;;;0.75;0.73;;;;;;;13.97;64.89;99852.47;5093281;28;20096;-80
2021/10/28 10:17:07;;;;;;;0.47;0.47;;;;;;;14.33;64.58;99891.34;5092951;28;20124;-78
2021/10/28 10:19:36;;;;;;;1.55;1.45;;;;;;;14.55;64.05;99896.00;5093097;28;20403;-76
2021/10/28 10:25:02;;;;;;;1.38;1.38;;;;;;;14.42;63.39;99872.06;5092984;28;20058;-79
2021/10/28 12:20:18;;;;;;;1.95;1.80;;;;;;;15.05;57.29;99750.78;5092709;28;20096;-80
2021/10/28 12:49:02;;;;;;;0.95;0.95;;;;;;;15.09;53.76;99733.97;5092070;28;20466;-79
2021/10/28 12:51:15;;;;;;;0.82;0.82;;;;;;;15.12;54.36;99724.75;5083684;28;20132;-80
2021/10/28 15:35:38;;;;;;;2.05;1.83;;;;;;;10.87;77.70;99695.50;5092720;28;20503;-79
2021/10/28 16:24:13;;;;;;;2.60;1.75;;;;;;;8.97;85.15;99704.22;5092479;28;20063;-80
2021/10/28 16:26:39;;;;;;;1.73;1.63;;;;;;;8.84;84.64;99712.13;5091053;28;20055;-81
2021/10/28 16:29:07;;;;;;;2.72;2.53;;;;;;;8.73;84.40;99681.09;5091729;28;20496;-80
2021/10/28 16:31:36;;;;;;;0.70;0.70;;;;;;;9.01;84.46;99742.78;5094676;28;20039;-79
2021/10/28 16:34:03;;;;;;;3.00;1.02;;;;;;;8.80;85.24;99735.38;5091759;28;20044;-80
2021/10/28 16:36:28;;;;;;;1.63;1.40;;;;;;;8.36;85.04;99694.59;5090661;28;20032;-80
2021/10/28 16:38:54;;;;;;;0.30;0.30;;;;;;;8.60;85.02;99737.81;5090483;28;20506;-80
2021/10/28 16:41:20;;;;;;;0.35;0.35;;;;;;;8.59;85.70;99763.78;5091388;28;20020;-78
2021/10/28 16:43:46;;;;;;;3.92;1.77;;;;;;;8.44;85.20;99715.41;5094229;28;20027;-80
2021/10/28 16:46:12;;;;;;;1.40;1.40;;;;;;;8.51;84.97;99718.94;5094558;28;20028;-80
2021/10/28 16:48:38;;;;;;;2.72;2.50;;;;;;;8.71;85.92;99746.81;5094623;28;20036;-79
2021/10/28 16:51:04;;;;;;;1.35;1.35;;;;;;;8.68;86.00;99725.56;5095440;28;20024;-79
2021/10/28 16:53:30;;;;;;;1.35;1.33;;;;;;;8.57;86.71;99733.88;5094082;28;20038;-78
2021/10/28 16:55:55;;;;;;;2.25;2.13;;;;;;;8.68;87.12;99746.84;5094169;28;20023;-78
2021/10/28 16:58:21;;;;;;;2.15;1.95;;;;;;;8.48;87.33;99729.97;5094175;28;20195;-79
2021/10/28 17:00:48;;;;;;;1.17;1.13;;;;;;;8.57;87.90;99739.38;5093861;28;20043;-78
2021/10/28 17:03:14;;;;;;;1.35;1.35;;;;;;;8.53;87.54;99737.81;5094045;28;20032;-78
2021/10/28 17:05:39;;;;;;;2.15;1.85;;;;;;;8.66;87.15;99760.22;5093986;28;20024;-77
2021/10/28 17:08:05;;;;;;;2.17;2.08;;;;;;;8.54;86.89;99766.94;5094034;28;20035;-79
2021/10/28 17:10:30;;;;;;;0.70;0.70;;;;;;;8.61;87.64;99758.66;5094222;28;20036;-78
2021/10/28 17:12:57;;;;;;;3.35;2.03;;;;;;;8.45;87.21;99748.06;5094156;28;20519;-78
2021/10/28 17:15:23;;;;;;;1.80;1.70;;;;;;;8.37;88.08;99748.47;5093787;28;20027;-80
2021/10/28 17:17:48;;;;;;;1.67;1.02;;;;;;;8.45;87.42;99753.56;5093891;28;20120;-80
2021/10/28 17:20:14;;;;;;;0.98;0.98;;;;;;;8.40;86.92;99753.19;5094143;28;20024;-80
2021/10/28 17:22:39;;;;;;;2.80;2.13;;;;;;;8.15;87.65;99748.47;5093427;28;20036;-79
2021/10/28 17:25:08;;;;;;;2.13;1.90;;;;;;;8.00;88.19;99715.84;5094212;28;20020;-80
2021/10/28 17:27:33;;;;;;;1.92;1.83;;;;;;;8.25;88.30;99755.16;5095196;28;20115;-80
2021/10/28 17:30:01;;;;;;;2.10;2.00;;;;;;;8.05;88.11;99762.22;5093423;28;20114;-80
2021/10/28 17:32:27;;;;;;;0.45;0.45;;;;;;;8.02;88.30;99729.97;5094080;28;20063;-80
2021/10/28 17:34:52;;;;;;;1.42;1.40;;;;;;;8.17;88.10;99764.59;5095308;28;20075;-80
2021/10/28 17:37:17;;;;;;;1.20;1.15;;;;;;;8.21;87.54;99770.88;5093477;28;20127;-81
2021/10/28 17:39:43;;;;;;;2.20;1.13;;;;;;;8.17;87.30;99770.88;5093649;28;20039;-80
2021/10/28 17:42:09;;;;;;;0.98;0.93;;;;;;;8.03;87.78;99772.84;5093733;28;20016;-81
2021/10/28 17:47:04;;;;;;;2.08;1.98;;;;;;;8.04;87.86;99780.72;5094639;28;20499;-80
2021/10/28 17:49:30;;;;;;;8.30;2.00;;;;;;;7.79;88.43;99774.41;5093431;28;20392;-81
2021/10/28 17:51:55;;;;;;;0.82;0.82;;;;;;;7.67;89.53;99783.81;5092900;28;20031;-80
2021/10/28 17:54:21;;;;;;;2.28;1.85;;;;;;;7.72;89.61;99788.13;5092668;28;20101;-80
2021/10/28 17:56:47;;;;;;;1.88;1.77;;;;;;;7.75;90.40;99790.13;5093421;28;20016;-80
2021/10/28 17:59:12;;;;;;;3.17;2.22;;;;;;;7.70;90.86;99790.50;5093127;28;20032;-80
2021/10/28 18:01:39;;;;;;;3.33;3.13;;;;;;;7.61;90.82;99757.09;5093146;28;20032;-80
2021/10/28 18:04:06;;;;;;;4.25;3.38;;;;;;;7.75;90.17;99779.13;5093076;28;20046;-80
2021/10/28 18:06:32;;;;;;;2.25;2.10;;;;;;;7.78;90.04;99784.63;5094144;28;20028;-80
2021/10/28 18:09:02;;;;;;;3.70;1.98;;;;;;;7.70;89.86;99782.25;5093502;28;20036;-80
2021/10/28 18:11:28;;;;;;;1.60;1.50;;;;;;;7.72;89.64;99790.88;5093101;28;20042;-80
2021/10/28 18:13:57;;;;;;;1.23;1.23;;;;;;;7.37;89.73;99747.59;5092590;28;20402;-80
2021/10/28 18:16:25;;;;;;;1.52;1.45;;;;;;;7.60;89.93;99791.25;5092648;28;20032;-81
2021/10/28 18:18:52;;;;;;;2.55;2.05;;;;;;;7.48;90.16;99781.41;5093903;28;20512;-80
2021/10/28 18:21:18;;;;;;;2.05;1.95;;;;;;;7.31;90.50;99774.69;5092245;28;20093;-80
2021/10/28 18:23:48;;;;;;;3.45;3.20;;;;;;;7.22;89.91;99777.03;5092449;28;20446;-80
2021/10/28 18:26:14;;;;;;;0.32;0.32;;;;;;;7.24;90.59;99785.66;5093395;28;20111;-80
2021/10/28 18:28:40;;;;;;;0.98;0.95;;;;;;;6.94;90.91;99749.44;5093629;28;20106;-80
2021/10/28 18:31:05;;;;;;;2.30;2.15;;;;;;;7.16;90.90;99797.03;5093751;28;20468;-81
2021/10/28 18:33:31;;;;;;;2.15;2.05;;;;;;;6.97;90.08;99756.13;5092334;28;20399;-80
2021/10/28 18:35:56;;;;;;;3.83;3.58;;;;;;;7.15;89.79;99799.00;5092210;28;20086;-80
2021/10/28 18:38:22;;;;;;;3.03;1.88;;;;;;;6.92;90.21;99798.50;5092118;28;20373;-80
2021/10/28 18:40:48;;;;;;;1.80;1.70;;;;;;;6.91;90.38;99796.91;5092293;28;20473;-81
2021/10/28 18:43:16;;;;;;;2.38;2.17;;;;;;;6.75;91.60;99790.97;5093854;28;20024;-80
2021/10/28 18:45:43;;;;;;;2.33;2.22;;;;;;;6.58;91.91;99791.63;5091723;28;20032;-81
2021/10/28 18:48:09;;;;;;;2.22;2.08;;;;;;;6.72;91.97;99798.00;5093554;28;20024;-81
2021/10/28 18:50:35;;;;;;;0.60;0.60;;;;;;;6.74;92.33;99805.84;5092382;28;20088;-81
2021/10/28 18:53:00;;;;;;;2.45;2.25;;;;;;;6.60;91.34;99795.56;5092261;28;20126;-80
2021/10/28 18:55:26;;;;;;;1.02;1.02;;;;;;;6.67;90.50;99805.81;5092394;28;20563;-81
2021/10/28 18:57:52;;;;;;;1.33;1.33;;;;;;;6.40;91.66;99803.25;5091882;28;20542;-80
2021/10/28 19:00:17;;;;;;;1.40;1.17;;;;;;;6.64;91.64;99792.81;5091728;28;20027;-81
2021/10/28 19:02:43;;;;;;;1.88;1.77;;;;;;;6.48;90.65;99779.41;5091873;28;20182;-82
2021/10/28 19:05:09;;;;;;;2.70;2.47;;;;;;;6.23;90.72;99771.00;5091822;28;20035;-83
2021/10/28 19:07:35;;;;;;;0.90;0.90;;;;;;;6.31;90.39;99788.31;5091949;28;20024;-81
2021/10/28 19:10:01;;;;;;;1.23;0.95;;;;;;;6.26;91.04;99818.84;5091950;28;20036;-82
2021/10/28 19:12:26;;;;;;;0.73;0.73;;;;;;;5.85;92.42;99769.47;5091959;28;20063;-82
2021/10/28 19:14:54;;;;;;;2.72;2.33;;;;;;;6.20;92.52;99821.16;5091855;28;20063;-82
2021/10/28 19:17:20;;;;;;;0.40;0.40;;;;;;;6.12;92.66;99792.88;5091803;28;20028;-83
2021/10/28 19:19:45;;;;;;;4.38;2.25;;;;;;;6.16;92.17;99809.34;5091821;28;20429;-82
2021/10/28 19:22:11;;;;;;;2.15;2.05;;;;;;;6.04;91.93;99810.44;5091624;28;20024;-82
2021/10/28 19:24:36;;;;;;;1.40;1.38;;;;;;;6.04;93.81;99820.63;5092695;28;20071;-82
2021/10/28 19:27:02;;;;;;;1.58;1.48;;;;;;;5.89;94.27;99777.78;5097276;28;20050;-83
2021/10/28 19:29:28;;;;;;;0.95;0.95;;;;;;;6.29;93.72;99805.16;5092859;28;20036;-83
2021/10/28 19:31:59;;;;;;;0.98;0.98;;;;;;;6.45;92.50;99818.63;5091534;28;20424;-82
2021/10/28 19:34:26;;;;;;;0.50;0.50;;;;;;;6.52;92.03;99815.91;5091832;28;20560;-81
2021/10/28 19:47:19;;;;;;;0.47;0.47;;;;;;;6.30;91.79;99839.66;5092301;28;20042;-82
2021/10/28 19:49:46;;;;;;;1.40;1.38;;;;;;;6.22;91.05;99776.84;5092762;28;20463;-82
2021/10/28 19:52:14;;;;;;;0.65;0.65;;;;;;;6.28;90.71;99814.53;5091497;28;20111;-83
2021/10/28 19:54:41;;;;;;;;;;;;;;;6.27;91.04;99826.69;5092132;28;20063;-82
2021/10/28 19:57:12;;;;;;;0.40;0.40;;;;;;;6.02;92.12;99839.44;5091577;28;20413;-82
2021/10/28 19:59:44;;;;;;;1.20;1.20;;;;;;;6.13;91.58;99832.06;5091604;28;20039;-80
2021/10/28 20:02:15;;;;;;;1.67;1.58;;;;;;;6.13;90.99;99830.13;5092768;28;20050;-80
2021/10/28 20:07:26;;;;;;;1.08;0.77;;;;;;;5.83;93.17;99836.84;5092501;28;20051;-80
2021/10/28 20:20:36;;;;;;;0.45;0.45;;;;;;;5.87;91.40;99841.22;5096884;28;20567;-80
2021/10/28 20:23:03;;;;;;;0.50;0.50;;;;;;;5.92;91.75;99862.03;5095278;28;20024;-81
2021/10/28 20:25:29;;;;;;;0.30;0.30;;;;;;;5.88;92.43;99829.09;5095205;28;20078;-80
2021/10/28 20:27:57;;;;;;;2.70;0.73;;;;;;;5.85;91.68;99799.66;5095276;28;20039;-80
2021/10/28 20:30:28;;;;;;;0.38;0.38;;;;;;;6.21;91.72;99836.44;5095518;28;20106;-81
2021/10/28 20:32:54;;;;;;;1.08;1.08;;;;;;;6.11;91.63;99839.88;5095348;28;20407;-80
2021/10/28 20:37:52;;;;;;;3.15;2.95;;;;;;;5.89;92.15;99786.81;5096288;28;20433;-80
2021/10/28 20:40:18;;;;;;;0.40;0.40;;;;;;;5.82;92.55;99819.59;5094933;28;20039;-81
2021/10/28 20:42:49;;;;;;;1.75;1.65;;;;;;;5.93;92.74;99828.75;5093777;28;20115;-80
2021/10/28 20:45:18;;;;;;;1.48;1.38;;;;;;;6.07;92.70;99834.38;5093480;28;20141;-80
2021/10/28 20:47:46;;;;;;;3.00;2.80;;;;;;;5.85;93.09;99820.78;5093469;28;20032;-79
2021/10/28 20:50:13;;;;;;;;;;;;;;;6.02;93.14;99833.94;5092071;28;20100;-79
2021/10/28 20:52:40;;;;;;;4.85;1.85;;;;;;;5.98;92.68;99814.69;5092602;28;19920;-79
2021/10/28 20:55:06;;;;;;;2.97;2.20;;;;;;;6.08;92.64;99819.50;5092929;28;20233;-78
2021/10/28 20:57:34;;;;;;;1.88;1.77;;;;;;;5.97;92.06;99806.81;5094666;28;20074;-79
2021/10/28 21:00:02;;;;;;;1.15;1.15;;;;;;;5.95;92.34;99799.00;5094399;28;20020;-79
2021/10/28 21:02:27;;;;;;;1.20;1.20;;;;;;;6.18;91.29;99811.72;5093090;28;20032;-78